Conifer, Colorado
Current Conditions -  °F | °C
As of 2:53 AM on Friday 28 Nov 2014 (Local Time) from KAPA Reporting Station
Few Clouds Few Clouds  
Wind Chill: 36°   Ceiling: Unl
Heat Index: 43°   Visibility: 10mi
Dew Point: 15°   Wind: 13mph
Humidity: 32%   Direction: 160°SSE
Pressure: 30.04"   Gusts: NA
Location:  39.52°N, 105.31°W
Report Text: KAPA 280953Z 16011KT 10SM FEW150 FEW220 06/M09 A3004 RMK AO2 SLP146 T00611094
Loading
Personal Weather Stations






























Interactive Weather Map New forecast layout! Learn more

10-Day Weather Forecast

Advertisements
Track Severe Weather on mobile